Time;durP1;ratioP1;P1;durP2;ratioP2;P2;SDS_P1;SDS_P2;PMS_P1;PMS_P2;Temp;Humidity;BMP_temperature;BMP_pressure;BME280_temperature;BME280_humidity;BME280_pressure;Samples;Min_cycle;Max_cycle;Signal;HPM_P1;HPM_P2
2021/06/25 00:02:23;;;;;;;8.03;6.27;;;19.80;99.90;;;;;;5054797;28;20440;-51
2021/06/25 00:04:49;;;;;;;8.30;7.50;;;19.80;99.90;;;;;;5054621;28;20788;-51
2021/06/25 00:07:16;;;;;;;7.23;6.63;;;19.80;99.90;;;;;;5054838;28;20437;-50
2021/06/25 00:09:43;;;;;;;9.00;7.17;;;19.80;99.90;;;;;;5054242;28;20523;-50
2021/06/25 00:12:10;;;;;;;9.30;7.17;;;19.80;99.90;;;;;;5054660;28;20439;-50
2021/06/25 00:14:38;;;;;;;7.67;6.97;;;19.80;99.90;;;;;;5054736;28;20453;-49
2021/06/25 00:17:05;;;;;;;7.43;6.73;;;19.80;99.90;;;;;;5054497;28;20442;-49
2021/06/25 00:19:32;;;;;;;9.23;6.50;;;19.80;99.90;;;;;;5054010;28;20816;-49
2021/06/25 00:21:59;;;;;;;8.97;7.47;;;19.50;99.90;;;;;;5054474;28;20828;-49
2021/06/25 00:24:25;;;;;;;7.30;6.60;;;19.70;99.90;;;;;;5054545;28;20792;-49
2021/06/25 00:26:52;;;;;;;7.73;6.60;;;19.40;99.90;;;;;;5054506;28;20439;-49
2021/06/25 00:29:20;;;;;;;7.60;6.80;;;19.80;99.90;;;;;;5054026;28;20458;-50
2021/06/25 00:31:48;;;;;;;10.97;8.10;;;19.80;99.90;;;;;;5054012;28;20553;-49
2021/06/25 00:34:15;;;;;;;8.27;7.57;;;19.80;99.90;;;;;;5054175;28;20442;-50
2021/06/25 00:36:42;;;;;;;8.53;7.30;;;19.80;99.90;;;;;;5054277;28;20426;-51
2021/06/25 00:39:09;;;;;;;8.10;7.30;;;19.80;99.90;;;;;;5054117;28;20485;-50
2021/06/25 00:41:35;;;;;;;8.20;7.40;;;19.70;99.90;;;;;;5054152;28;20450;-50
2021/06/25 00:44:02;;;;;;;8.17;7.37;;;19.70;99.90;;;;;;5054115;28;20472;-51
2021/06/25 00:46:30;;;;;;;10.87;8.13;;;19.70;99.90;;;;;;5054481;28;20984;-51
2021/06/25 00:48:58;;;;;;;9.03;6.83;;;19.70;99.90;;;;;;5053949;28;20440;-50
2021/06/25 00:51:25;;;;;;;9.77;6.80;;;19.90;99.90;;;;;;5054134;28;20461;-50
2021/06/25 00:53:52;;;;;;;11.70;8.67;;;19.50;99.90;;;;;;5054199;28;20950;-50
2021/06/25 00:56:18;;;;;;;8.70;7.70;;;19.60;99.90;;;;;;5053075;28;20430;-51
2021/06/25 00:58:45;;;;;;;8.50;7.70;;;19.60;99.90;;;;;;5035400;28;20857;-50
2021/06/25 01:01:12;;;;;;;9.33;7.60;;;19.60;99.90;;;;;;5077456;22;20494;-54
2021/06/25 01:03:40;;;;;;;7.77;7.07;;;19.60;99.90;;;;;;5053391;28;20427;-55
2021/06/25 01:06:08;;;;;;;7.93;6.97;;;19.40;99.90;;;;;;5053531;28;20438;-54
2021/06/25 01:08:36;;;;;;;8.00;7.40;;;19.60;99.90;;;;;;5053108;28;20950;-55
2021/06/25 01:11:03;;;;;;;8.30;7.53;;;19.50;99.90;;;;;;5053346;28;20537;-55
2021/06/25 01:13:30;;;;;;;7.97;7.20;;;19.10;99.90;;;;;;5053455;28;20450;-55
2021/06/25 01:15:56;;;;;;;14.03;7.53;;;19.50;99.90;;;;;;5053505;28;20797;-55
2021/06/25 01:18:23;;;;;;;7.93;7.20;;;19.50;99.90;;;;;;5052852;28;21015;-55
2021/06/25 01:20:50;;;;;;;9.27;8.10;;;19.70;99.90;;;;;;5035115;28;20467;-55
2021/06/25 01:23:18;;;;;;;8.37;7.57;;;19.70;99.90;;;;;;5035253;28;20462;-55
2021/06/25 01:25:44;;;;;;;7.27;6.53;;;19.20;99.90;;;;;;5035201;28;20553;-54
2021/06/25 01:28:12;;;;;;;8.73;7.37;;;19.20;99.90;;;;;;5052655;28;20430;-55
2021/06/25 01:30:41;;;;;;;9.50;8.43;;;19.50;99.90;;;;;;5052767;28;20548;-55
2021/06/25 01:33:09;;;;;;;8.27;7.50;;;19.40;99.90;;;;;;5053045;28;20435;-54
2021/06/25 01:35:37;;;;;;;8.63;7.83;;;19.70;99.90;;;;;;5052798;28;20469;-55
2021/06/25 01:38:04;;;;;;;7.77;6.97;;;19.40;99.90;;;;;;5053068;28;21088;-55
2021/06/25 01:40:36;;;;;;;8.80;7.20;;;19.50;99.90;;;;;;5052803;28;20464;-54
2021/06/25 01:43:03;;;;;;;8.00;7.27;;;19.50;99.90;;;;;;5052876;28;20442;-55
2021/06/25 01:45:32;;;;;;;8.10;7.30;;;19.40;99.90;;;;;;5052841;28;20922;-55
2021/06/25 01:48:00;;;;;;;7.57;6.87;;;19.50;99.90;;;;;;5052445;28;20552;-53
2021/06/25 01:50:29;;;;;;;11.17;7.57;;;19.30;99.90;;;;;;5052371;28;20967;-54
2021/06/25 01:52:58;;;;;;;10.30;7.80;;;19.70;99.90;;;;;;5052777;28;20442;-54
2021/06/25 01:55:25;;;;;;;8.40;6.47;;;19.10;99.90;;;;;;5052546;28;20441;-55
2021/06/25 01:57:54;;;;;;;7.33;6.70;;;19.50;99.90;;;;;;5052386;28;20488;-54
2021/06/25 02:00:21;;;;;;;8.73;7.83;;;19.30;99.90;;;;;;5052217;28;20457;-55
2021/06/25 02:02:48;;;;;;;8.63;7.30;;;19.50;99.90;;;;;;5052509;28;20461;-55
2021/06/25 02:05:16;;;;;;;8.60;7.77;;;19.50;99.90;;;;;;5052486;28;20465;-55
2021/06/25 02:07:43;;;;;;;8.50;7.60;;;19.90;99.90;;;;;;5052087;28;20439;-54
2021/06/25 02:10:12;;;;;;;9.83;8.70;;;19.80;99.90;;;;;;5052089;28;20532;-55
2021/06/25 02:12:39;;;;;;;8.30;6.97;;;19.50;99.90;;;;;;5052294;28;20439;-54
2021/06/25 02:15:09;;;;;;;7.93;7.13;;;19.50;99.90;;;;;;5052227;28;20426;-55
2021/06/25 02:17:36;;;;;;;9.80;8.33;;;19.60;99.90;;;;;;5052280;28;20441;-55
2021/06/25 02:20:04;;;;;;;8.77;7.87;;;19.50;99.90;;;;;;5051737;28;20436;-55
2021/06/25 02:22:31;;;;;;;10.27;7.93;;;19.60;99.90;;;;;;5052027;28;20450;-56
2021/06/25 02:24:57;;;;;;;7.77;6.97;;;19.30;99.90;;;;;;5052272;28;20442;-55
2021/06/25 02:27:24;;;;;;;8.80;7.57;;;19.60;99.90;;;;;;5051960;28;20892;-55
2021/06/25 02:29:51;;;;;;;8.07;7.43;;;19.20;99.90;;;;;;5051629;28;20484;-54
2021/06/25 02:32:19;;;;;;;7.93;7.13;;;19.40;99.90;;;;;;5051754;28;20475;-55
2021/06/25 02:34:45;;;;;;;8.50;7.80;;;19.30;99.90;;;;;;5051990;28;20809;-55
2021/06/25 02:37:12;;;;;;;8.50;7.77;;;19.60;99.90;;;;;;5052093;28;20955;-55
2021/06/25 02:39:39;;;;;;;8.13;7.50;;;19.80;99.90;;;;;;5051329;28;20484;-55
2021/06/25 02:42:06;;;;;;;9.80;7.30;;;19.30;99.90;;;;;;5050985;28;20456;-55
2021/06/25 02:44:33;;;;;;;7.73;6.93;;;19.70;99.90;;;;;;5050735;28;20440;-54
2021/06/25 02:47:00;;;;;;;6.77;6.17;;;19.60;99.90;;;;;;5051732;28;20446;-54
2021/06/25 02:49:28;;;;;;;8.23;7.53;;;19.60;99.90;;;;;;5051436;28;20436;-55
2021/06/25 02:51:54;;;;;;;9.10;6.97;;;19.40;99.90;;;;;;5051703;28;20453;-55
2021/06/25 02:54:21;;;;;;;7.60;6.90;;;19.60;99.90;;;;;;5051678;28;20625;-55
2021/06/25 02:56:48;;;;;;;7.40;6.70;;;19.40;99.90;;;;;;5051801;28;20437;-54
2021/06/25 02:59:14;;;;;;;9.30;6.50;;;19.30;99.90;;;;;;5051186;28;20486;-54
2021/06/25 03:01:41;;;;;;;7.30;6.60;;;19.60;99.90;;;;;;5051685;28;20465;-54
2021/06/25 03:04:07;;;;;;;7.37;6.23;;;19.60;99.90;;;;;;5051295;28;20524;-54
2021/06/25 03:06:35;;;;;;;6.73;6.13;;;19.40;99.90;;;;;;5051437;28;20434;-54
2021/06/25 03:09:02;;;;;;;7.03;6.33;;;19.60;99.90;;;;;;5051325;28;20441;-54
2021/06/25 03:11:29;;;;;;;8.10;6.40;;;19.30;99.90;;;;;;5051235;28;20988;-54
2021/06/25 03:13:55;;;;;;;6.00;5.40;;;19.60;99.90;;;;;;5051391;28;20449;-54
2021/06/25 03:16:22;;;;;;;8.10;6.20;;;19.70;99.90;;;;;;5051289;28;20430;-54
2021/06/25 03:18:49;;;;;;;7.87;6.03;;;19.60;99.90;;;;;;5052978;28;20470;-54
2021/06/25 03:21:17;;;;;;;8.53;6.37;;;19.70;99.90;;;;;;5055108;28;20449;-54
2021/06/25 03:23:45;;;;;;;9.07;6.73;;;19.40;99.90;;;;;;5055330;28;20461;-54
2021/06/25 03:26:12;;;;;;;8.50;6.67;;;19.40;99.90;;;;;;5055282;28;20434;-54
2021/06/25 03:28:38;;;;;;;7.83;6.43;;;19.70;99.90;;;;;;5054938;28;20427;-54
2021/06/25 03:31:05;;;;;;;7.43;6.67;;;19.60;99.90;;;;;;5055739;28;20825;-54
2021/06/25 03:33:32;;;;;;;7.80;6.87;;;19.70;99.90;;;;;;5055520;28;20818;-54
2021/06/25 03:35:58;;;;;;;8.73;6.60;;;19.90;99.90;;;;;;5055164;28;20434;-54
2021/06/25 03:38:25;;;;;;;6.87;5.90;;;19.80;99.90;;;;;;5054656;28;20474;-54
2021/06/25 03:40:53;;;;;;;7.83;7.03;;;19.80;99.90;;;;;;5055004;28;20460;-54
2021/06/25 03:43:20;;;;;;;14.40;7.20;;;19.80;99.90;;;;;;5055085;28;20445;-54
2021/06/25 03:45:47;;;;;;;11.73;6.47;;;19.80;99.90;;;;;;5054873;28;20431;-54
2021/06/25 03:48:13;;;;;;;9.10;7.30;;;19.90;99.90;;;;;;5054633;28;20434;-54
2021/06/25 03:50:40;;;;;;;8.10;7.27;;;19.80;99.90;;;;;;5054902;28;20462;-54
2021/06/25 03:53:07;;;;;;;8.70;6.53;;;19.80;99.90;;;;;;5054839;28;20446;-54
2021/06/25 03:55:33;;;;;;;11.67;7.83;;;19.80;99.90;;;;;;5054714;28;20521;-54
2021/06/25 03:58:01;;;;;;;10.83;7.63;;;19.90;99.90;;;;;;5054806;28;20426;-54
2021/06/25 04:00:28;;;;;;;6.70;6.00;;;19.80;99.90;;;;;;5054394;28;20466;-54
2021/06/25 04:02:55;;;;;;;9.67;7.40;;;19.90;99.90;;;;;;5054897;28;20461;-54
2021/06/25 04:05:21;;;;;;;8.97;8.07;;;19.60;99.90;;;;;;5054680;28;20537;-54
2021/06/25 04:07:48;;;;;;;9.63;8.33;;;19.90;99.90;;;;;;5054719;28;20439;-54
2021/06/25 04:10:15;;;;;;;10.27;9.30;;;19.70;99.90;;;;;;5036254;28;20443;-54
2021/06/25 04:12:42;;;;;;;9.40;8.60;;;19.70;99.90;;;;;;5054422;28;20460;-54
2021/06/25 04:15:11;;;;;;;17.23;9.33;;;19.90;99.90;;;;;;5054401;28;20438;-53
2021/06/25 04:17:39;;;;;;;11.47;7.90;;;20.00;99.90;;;;;;5054384;28;20455;-54
2021/06/25 04:20:07;;;;;;;10.00;8.83;;;20.00;99.90;;;;;;5053667;28;20520;-54
2021/06/25 04:22:34;;;;;;;13.30;9.83;;;20.20;99.90;;;;;;5054415;28;20435;-55
2021/06/25 04:25:01;;;;;;;7.70;6.80;;;20.00;99.90;;;;;;5054099;28;20966;-54
2021/06/25 04:27:27;;;;;;;8.57;7.83;;;19.80;99.90;;;;;;5053973;28;20441;-54
2021/06/25 04:29:54;;;;;;;9.23;7.40;;;20.10;99.90;;;;;;5053580;28;20426;-54
2021/06/25 04:32:22;;;;;;;10.00;9.00;;;20.20;99.90;;;;;;5053959;28;20518;-55
2021/06/25 04:34:49;;;;;;;9.90;8.60;;;19.80;99.90;;;;;;5054197;28;20439;-55
2021/06/25 04:37:16;;;;;;;9.00;8.20;;;20.20;99.90;;;;;;5054154;28;20434;-54
2021/06/25 04:39:42;;;;;;;9.53;7.77;;;20.70;99.90;;;;;;5053469;28;20478;-55
2021/06/25 04:42:11;;;;;;;12.50;9.00;;;20.30;99.90;;;;;;5053843;28;20967;-54
2021/06/25 04:44:39;;;;;;;12.30;8.50;;;20.20;99.90;;;;;;5054263;28;20434;-54
2021/06/25 04:47:06;;;;;;;9.60;7.77;;;20.50;99.90;;;;;;5053598;28;20934;-54
2021/06/25 04:49:36;;;;;;;8.70;7.90;;;20.20;99.90;;;;;;5053422;28;20435;-55
2021/06/25 04:52:02;;;;;;;10.20;9.00;;;20.10;99.90;;;;;;5053773;28;20451;-54
2021/06/25 04:54:29;;;;;;;10.17;8.73;;;20.20;99.90;;;;;;5053752;28;20439;-54
2021/06/25 04:56:56;;;;;;;9.73;8.63;;;20.20;99.90;;;;;;5053366;28;20739;-54
2021/06/25 04:59:22;;;;;;;13.20;8.00;;;20.20;99.90;;;;;;5053320;28;20488;-54
2021/06/25 05:01:49;;;;;;;9.33;8.30;;;20.30;99.90;;;;;;5053406;28;20476;-54
2021/06/25 05:04:15;;;;;;;8.00;7.30;;;20.30;99.90;;;;;;5053374;28;20539;-55
2021/06/25 05:06:43;;;;;;;10.27;8.23;;;20.00;99.90;;;;;;5053322;28;20814;-54
2021/06/25 05:09:10;;;;;;;10.80;7.97;;;19.80;99.90;;;;;;5052904;28;20525;-54
2021/06/25 05:11:37;;;;;;;12.53;7.53;;;20.30;99.90;;;;;;5053305;28;20540;-54
2021/06/25 05:14:03;;;;;;;9.97;8.73;;;20.30;99.90;;;;;;5035214;28;20455;-54
2021/06/25 05:16:30;;;;;;;9.93;8.20;;;20.00;99.90;;;;;;5053158;28;20455;-54
2021/06/25 05:18:57;;;;;;;10.07;9.10;;;20.40;99.90;;;;;;5052857;28;20550;-53
2021/06/25 05:21:24;;;;;;;10.63;9.07;;;19.90;99.90;;;;;;5052793;28;20549;-54
2021/06/25 05:23:52;;;;;;;8.90;8.10;;;20.50;99.90;;;;;;5052762;28;20951;-54
2021/06/25 05:26:20;;;;;;;10.90;9.80;;;20.40;99.90;;;;;;5052831;28;20430;-54
2021/06/25 05:28:47;;;;;;;10.97;9.47;;;20.20;99.90;;;;;;5052541;28;20442;-54
2021/06/25 05:31:14;;;;;;;13.97;9.50;;;20.10;99.90;;;;;;5052926;28;20463;-54
2021/06/25 05:33:40;;;;;;;10.50;9.40;;;20.30;99.90;;;;;;5052910;28;20445;-54
2021/06/25 05:36:07;;;;;;;11.57;9.77;;;20.20;99.90;;;;;;5052498;28;20580;-54
2021/06/25 05:38:34;;;;;;;10.80;9.70;;;20.60;99.90;;;;;;5052044;28;20454;-55
2021/06/25 05:41:02;;;;;;;13.60;10.03;;;20.50;99.90;;;;;;5034147;28;20472;-54
2021/06/25 05:43:28;;;;;;;10.27;9.20;;;20.70;99.90;;;;;;5052375;28;20439;-54
2021/06/25 05:45:55;;;;;;;11.50;10.30;;;20.40;99.90;;;;;;5052150;28;20445;-55
2021/06/25 05:48:22;;;;;;;9.87;8.87;;;20.80;99.90;;;;;;5052051;28;20522;-55
2021/06/25 05:50:49;;;;;;;10.97;9.17;;;20.90;99.90;;;;;;5052153;28;20567;-55
2021/06/25 05:53:15;;;;;;;13.43;10.37;;;21.10;99.90;;;;;;5052280;28;20432;-55
2021/06/25 05:55:42;;;;;;;10.67;9.70;;;21.00;99.90;;;;;;5052108;28;20444;-55
2021/06/25 05:58:11;;;;;;;11.10;10.00;;;21.10;99.90;;;;;;5052043;28;21042;-55
2021/06/25 06:00:38;;;;;;;13.47;11.23;;;21.20;99.90;;;;;;5034075;28;20537;-55
2021/06/25 06:03:05;;;;;;;10.03;9.00;;;21.50;99.90;;;;;;5052284;28;20463;-54
2021/06/25 06:05:31;;;;;;;14.33;10.00;;;21.20;99.90;;;;;;5051977;28;20436;-54
2021/06/25 06:07:58;;;;;;;11.03;10.00;;;20.90;99.90;;;;;;5052029;28;20437;-54
2021/06/25 06:10:25;;;;;;;12.27;11.03;;;21.50;99.90;;;;;;5051966;28;20449;-54
2021/06/25 06:12:51;;;;;;;15.37;11.70;;;21.00;99.90;;;;;;5052342;28;20967;-55
2021/06/25 06:15:19;;;;;;;15.20;10.20;;;21.30;99.90;;;;;;5052770;28;20533;-55
2021/06/25 06:17:48;;;;;;;13.73;10.50;;;21.30;99.90;;;;;;5051855;28;20936;-56
2021/06/25 06:20:18;;;;;;;10.77;9.67;;;21.50;99.90;;;;;;5051336;28;20508;-55
2021/06/25 06:31:19;;;;;;;12.97;9.70;;;21.40;99.90;;;;;;5051659;28;20886;-55
2021/06/25 06:33:49;;;;;;;14.17;10.47;;;21.60;99.90;;;;;;5033502;28;20472;-56
2021/06/25 06:36:22;;;;;;;9.90;8.90;;;21.60;99.90;;;;;;5051611;28;20490;-54
2021/06/25 06:38:49;;;;;;;11.70;10.07;;;21.70;99.90;;;;;;5051009;28;20432;-56
2021/06/25 06:41:16;;;;;;;12.83;10.20;;;21.60;99.90;;;;;;5051235;28;20483;-54
2021/06/25 06:43:43;;;;;;;10.97;9.27;;;21.80;99.90;;;;;;5051199;28;20481;-54
2021/06/25 06:46:11;;;;;;;15.37;11.27;;;21.90;99.90;;;;;;5051249;28;20894;-55
2021/06/25 06:48:39;;;;;;;10.73;9.63;;;21.90;99.90;;;;;;5049775;28;20495;-54
2021/06/25 06:51:06;;;;;;;14.57;9.73;;;22.30;99.90;;;;;;5050732;28;20474;-55
2021/06/25 06:53:33;;;;;;;10.63;9.17;;;22.10;99.90;;;;;;5050327;28;20465;-55
2021/06/25 06:56:00;;;;;;;10.33;8.53;;;22.20;99.90;;;;;;5051254;28;20444;-55
2021/06/25 06:58:27;;;;;;;9.00;8.10;;;22.40;99.90;;;;;;5050919;28;20533;-55
2021/06/25 07:00:53;;;;;;;10.90;8.83;;;22.50;99.60;;;;;;5069447;22;21661;-48
2021/06/25 07:03:22;;;;;;;11.20;8.47;;;22.50;99.30;;;;;;5071283;28;20471;-50
2021/06/25 07:05:49;;;;;;;14.40;9.27;;;22.50;99.10;;;;;;5071037;28;20467;-50
2021/06/25 07:08:15;;;;;;;9.00;7.80;;;22.60;98.90;;;;;;5070941;28;20433;-48
2021/06/25 07:10:42;;;;;;;12.87;8.20;;;22.60;98.60;;;;;;5071163;28;20449;-50
2021/06/25 07:13:09;;;;;;;10.73;7.97;;;22.50;98.20;;;;;;5070800;28;20441;-49
2021/06/25 07:15:36;;;;;;;11.60;8.07;;;22.60;97.90;;;;;;5070921;28;20431;-49
2021/06/25 07:18:03;;;;;;;13.33;7.97;;;22.50;97.90;;;;;;5071011;28;20457;-49
2021/06/25 07:20:32;;;;;;;14.00;10.40;;;22.60;97.90;;;;;;5071274;28;20481;-47
2021/06/25 07:22:59;;;;;;;10.90;8.57;;;22.60;98.00;;;;;;5071196;28;20437;-50
2021/06/25 07:25:25;;;;;;;10.43;8.53;;;22.50;98.10;;;;;;5071199;28;20798;-48
2021/06/25 07:27:52;;;;;;;12.63;8.53;;;22.40;97.70;;;;;;5071280;28;20427;-49
2021/06/25 07:30:19;;;;;;;11.27;8.10;;;22.40;97.80;;;;;;5071029;28;20804;-50
2021/06/25 07:32:46;;;;;;;9.50;8.20;;;22.30;97.70;;;;;;5070835;28;20773;-49
2021/06/25 07:35:12;;;;;;;12.77;8.20;;;22.30;97.70;;;;;;5070979;28;20441;-50
2021/06/25 07:37:41;;;;;;;9.10;8.20;;;22.70;97.60;;;;;;5071204;28;20873;-49
2021/06/25 07:40:10;;;;;;;9.93;7.87;;;22.50;97.40;;;;;;5070762;28;20473;-49
2021/06/25 07:42:37;;;;;;;9.30;8.27;;;22.50;97.20;;;;;;5071098;28;20489;-48
2021/06/25 07:45:08;;;;;;;10.20;7.80;;;22.60;97.10;;;;;;5071185;28;20515;-50
2021/06/25 07:47:34;;;;;;;11.53;8.93;;;22.60;97.00;;;;;;5071176;28;20430;-49
2021/06/25 07:50:01;;;;;;;9.20;8.37;;;22.60;96.90;;;;;;5070933;28;20441;-51
2021/06/25 07:52:28;;;;;;;10.47;8.90;;;22.70;96.90;;;;;;5070997;28;20992;-50
2021/06/25 07:54:56;;;;;;;10.73;8.83;;;22.70;96.80;;;;;;5052678;28;20540;-49
2021/06/25 07:57:22;;;;;;;8.10;7.27;;;22.60;96.50;;;;;;5053060;28;20484;-49
2021/06/25 07:59:49;;;;;;;13.93;8.20;;;22.90;96.50;;;;;;5070546;28;21013;-48
2021/06/25 08:02:16;;;;;;;9.70;7.73;;;22.90;96.20;;;;;;5070756;28;20501;-49
2021/06/25 08:04:45;;;;;;;13.83;7.53;;;22.70;95.60;;;;;;5054605;28;20449;-48
2021/06/25 08:07:12;;;;;;;9.27;8.10;;;23.00;95.30;;;;;;5074920;28;20531;-48
2021/06/25 08:09:39;;;;;;;10.00;7.43;;;23.10;95.10;;;;;;5074583;28;20793;-48
2021/06/25 08:12:09;;;;;;;7.60;6.77;;;23.10;94.90;;;;;;5074119;28;20461;-50
2021/06/25 08:14:35;;;;;;;8.27;7.40;;;23.30;94.50;;;;;;5074681;28;20432;-48
2021/06/25 08:17:03;;;;;;;7.20;6.50;;;23.40;94.30;;;;;;5074614;28;20503;-50
2021/06/25 08:19:29;;;;;;;10.50;7.30;;;23.50;93.90;;;;;;5074098;28;20433;-49
2021/06/25 08:21:56;;;;;;;7.70;7.00;;;23.60;93.70;;;;;;5074248;28;20446;-49
2021/06/25 08:24:23;;;;;;;12.80;11.13;;;23.70;93.30;;;;;;5074476;28;20483;-49
2021/06/25 08:26:50;;;;;;;7.67;6.87;;;23.80;92.80;;;;;;5073869;28;20822;-50
2021/06/25 08:29:19;;;;;;;7.23;6.13;;;23.90;92.30;;;;;;5073815;28;20431;-49
2021/06/25 08:31:46;;;;;;;11.50;7.33;;;23.90;91.90;;;;;;5074229;28;20465;-49
2021/06/25 08:34:12;;;;;;;12.53;6.93;;;24.00;91.40;;;;;;5056216;28;20444;-48
2021/06/25 08:36:39;;;;;;;7.70;6.50;;;24.10;91.00;;;;;;5074152;28;20431;-50
2021/06/25 08:39:06;;;;;;;7.60;6.70;;;24.10;91.10;;;;;;5073387;28;20448;-49
2021/06/25 08:41:34;;;;;;;7.07;6.47;;;24.10;90.80;;;;;;5073371;28;20509;-48
2021/06/25 08:44:01;;;;;;;12.60;7.40;;;24.20;90.90;;;;;;5073683;28;20805;-50
2021/06/25 08:46:30;;;;;;;9.13;7.30;;;24.30;90.80;;;;;;5073733;28;20437;-49
2021/06/25 08:48:59;;;;;;;8.13;7.03;;;24.30;90.50;;;;;;5073462;28;20437;-49
2021/06/25 08:51:26;;;;;;;6.67;6.00;;;24.20;90.30;;;;;;5073566;28;20485;-48
2021/06/25 08:53:53;;;;;;;11.20;7.27;;;24.40;90.40;;;;;;5073849;28;20433;-48
2021/06/25 08:56:20;;;;;;;8.47;6.43;;;24.40;89.70;;;;;;5074069;28;20513;-47
2021/06/25 08:58:47;;;;;;;6.93;6.30;;;24.10;88.50;;;;;;5073019;28;20940;-49
2021/06/25 09:01:15;;;;;;;11.50;7.20;;;24.30;88.30;;;;;;5073369;28;20937;-49
2021/06/25 09:03:51;;;;;;;9.87;8.70;;;24.30;88.60;;;;;;5073668;28;20441;-48
2021/06/25 09:06:18;;;;;;;12.07;7.30;;;24.20;88.30;;;;;;5073145;28;20433;-49
2021/06/25 09:08:45;;;;;;;9.97;7.23;;;24.20;89.10;;;;;;5073339;28;20524;-50
2021/06/25 09:11:23;;;;;;;8.60;7.70;;;24.20;89.20;;;;;;5072824;28;20463;-49
2021/06/25 09:13:57;;;;;;;8.83;7.40;;;24.30;89.00;;;;;;5073022;28;20479;-49
2021/06/25 09:16:25;;;;;;;10.03;8.40;;;24.30;89.20;;;;;;5072277;28;20463;-49
2021/06/25 09:19:01;;;;;;;10.30;7.30;;;24.30;89.10;;;;;;5073124;28;20432;-49
2021/06/25 09:21:29;;;;;;;7.77;7.07;;;24.30;88.80;;;;;;5072535;28;20484;-48
2021/06/25 09:23:56;;;;;;;10.63;7.97;;;24.40;89.10;;;;;;5072593;28;21014;-49
2021/06/25 09:26:29;;;;;;;11.00;8.50;;;24.50;88.80;;;;;;5072449;28;20453;-47
2021/06/25 09:29:10;;;;;;;7.77;7.03;;;24.50;88.80;;;;;;5072447;28;20807;-49
2021/06/25 09:31:37;;;;;;;8.63;7.10;;;24.50;88.20;;;;;;5072810;28;20555;-48
2021/06/25 09:34:05;;;;;;;10.10;7.60;;;24.70;88.50;;;;;;5072080;28;20429;-50
2021/06/25 09:36:35;;;;;;;9.20;8.40;;;24.60;87.90;;;;;;5072038;28;20511;-50
2021/06/25 09:39:03;;;;;;;9.40;8.10;;;24.80;87.40;;;;;;5071715;28;20430;-50
2021/06/25 09:41:30;;;;;;;11.43;9.60;;;24.80;86.90;;;;;;5054028;28;20581;-48
2021/06/25 09:43:58;;;;;;;10.00;9.00;;;24.90;86.70;;;;;;5072474;28;20509;-49
2021/06/25 09:46:28;;;;;;;12.60;9.13;;;24.90;86.50;;;;;;5071765;28;20750;-48
2021/06/25 09:48:57;;;;;;;9.67;8.63;;;25.00;86.30;;;;;;5072108;28;20508;-48
2021/06/25 09:51:25;;;;;;;9.30;8.37;;;24.90;85.40;;;;;;5072229;28;20454;-50
2021/06/25 09:54:13;;;;;;;10.30;7.93;;;24.90;85.00;;;;;;5072415;28;20848;-50
2021/06/25 09:56:51;;;;;;;8.70;7.80;;;24.80;84.20;;;;;;5072220;28;20536;-51
2021/06/25 09:59:39;;;;;;;8.83;7.93;;;24.90;84.90;;;;;;5071783;28;20784;-48
2021/06/25 10:02:26;;;;;;;9.17;6.93;;;25.00;85.00;;;;;;5071899;28;20986;-48
2021/06/25 10:04:55;;;;;;;7.90;6.40;;;25.10;83.60;;;;;;5071729;28;20452;-49
2021/06/25 10:07:25;;;;;;;8.60;6.60;;;25.20;82.80;;;;;;5071820;28;20514;-47
2021/06/25 10:09:54;;;;;;;6.40;5.80;;;25.30;81.60;;;;;;5071818;28;20440;-50
2021/06/25 10:12:22;;;;;;;8.83;7.60;;;25.30;80.80;;;;;;5072149;28;20840;-49
2021/06/25 10:14:50;;;;;;;6.03;5.40;;;25.30;80.00;;;;;;5071939;28;20425;-49
2021/06/25 10:17:17;;;;;;;6.23;5.53;;;25.30;79.90;;;;;;5071489;28;20434;-49
2021/06/25 10:19:46;;;;;;;6.00;5.47;;;25.30;78.60;;;;;;5071332;28;20476;-50
2021/06/25 10:22:14;;;;;;;7.17;6.00;;;25.40;77.90;;;;;;5071606;28;20492;-50
2021/06/25 10:24:44;;;;;;;6.53;5.40;;;25.40;77.70;;;;;;5071645;28;20431;-50
2021/06/25 10:27:12;;;;;;;6.53;5.67;;;25.50;77.80;;;;;;5071460;28;20442;-48
2021/06/25 10:29:40;;;;;;;8.17;6.10;;;25.50;77.30;;;;;;5070840;28;20487;-50
2021/06/25 10:32:09;;;;;;;7.93;5.50;;;25.30;77.00;;;;;;5071112;28;20553;-49
2021/06/25 10:34:36;;;;;;;8.47;6.43;;;25.50;77.10;;;;;;5071622;28;20823;-50
2021/06/25 10:37:05;;;;;;;6.60;5.40;;;25.50;77.00;;;;;;5071449;28;20491;-49
2021/06/25 10:39:33;;;;;;;6.90;5.37;;;25.50;76.40;;;;;;5071028;28;20526;-50
2021/06/25 10:42:03;;;;;;;7.37;6.67;;;25.50;75.50;;;;;;5053041;28;20485;-50
2021/06/25 10:44:35;;;;;;;6.90;6.20;;;25.70;74.80;;;;;;5070782;28;20430;-48
2021/06/25 10:47:21;;;;;;;7.30;6.70;;;25.70;75.10;;;;;;5071644;28;20433;-49
2021/06/25 10:50:28;;;;;;;9.73;7.50;;;25.80;74.50;;;;;;5052895;28;20873;-50
2021/06/25 10:53:10;;;;;;;8.93;6.03;;;25.80;75.50;;;;;;5053138;28;20450;-49
2021/06/25 10:55:44;;;;;;;7.30;6.13;;;25.80;75.20;;;;;;5053129;28;20446;-49
2021/06/25 10:58:20;;;;;;;6.90;6.20;;;26.00;75.50;;;;;;5070765;28;20441;-49
2021/06/25 11:00:54;;;;;;;7.40;6.47;;;26.10;74.30;;;;;;5071164;28;20476;-50
2021/06/25 11:03:40;;;;;;;8.50;5.90;;;26.00;72.90;;;;;;5071273;28;20887;-49
2021/06/25 11:06:10;;;;;;;10.00;6.87;;;25.90;71.70;;;;;;5052717;28;20446;-50
2021/06/25 11:08:57;;;;;;;7.00;6.30;;;25.70;72.60;;;;;;5071054;28;20512;-49
2021/06/25 11:11:27;;;;;;;6.23;5.63;;;25.70;72.60;;;;;;5071182;28;20489;-48
2021/06/25 11:13:55;;;;;;;7.00;6.37;;;25.80;71.30;;;;;;5071415;28;20433;-48
2021/06/25 11:16:23;;;;;;;5.30;4.90;;;25.90;71.00;;;;;;5070973;28;20444;-50
2021/06/25 11:18:50;;;;;;;5.90;5.40;;;26.00;70.50;;;;;;5070720;28;20430;-52
2021/06/25 11:21:16;;;;;;;6.17;5.27;;;25.90;70.10;;;;;;5070762;28;21006;-50
2021/06/25 11:23:45;;;;;;;8.50;6.10;;;25.90;69.20;;;;;;5070910;28;20434;-49
2021/06/25 11:26:24;;;;;;;6.17;5.20;;;26.00;69.00;;;;;;5070849;28;20528;-50
2021/06/25 11:28:52;;;;;;;7.73;5.00;;;25.80;68.60;;;;;;5071127;28;20465;-49
2021/06/25 11:31:22;;;;;;;8.53;5.20;;;25.80;69.10;;;;;;5071093;28;20448;-49
2021/06/25 11:34:03;;;;;;;5.47;4.90;;;25.80;68.90;;;;;;5071160;28;20525;-49
2021/06/25 11:36:39;;;;;;;7.87;5.70;;;25.80;68.80;;;;;;5070926;28;20524;-48
2021/06/25 11:39:14;;;;;;;5.80;5.30;;;25.70;69.10;;;;;;5071483;28;20435;-50
2021/06/25 11:41:48;;;;;;;5.73;4.93;;;25.80;68.80;;;;;;5074953;28;20484;-49
2021/06/25 11:44:16;;;;;;;6.43;5.20;;;25.90;69.10;;;;;;5074693;28;20529;-49
2021/06/25 11:46:51;;;;;;;6.40;4.57;;;26.00;69.10;;;;;;5075240;28;20483;-49
2021/06/25 11:49:18;;;;;;;5.63;5.13;;;26.00;66.40;;;;;;5073911;28;20457;-49
2021/06/25 11:51:46;;;;;;;6.70;5.30;;;26.00;66.40;;;;;;5074576;28;20633;-50
2021/06/25 11:54:18;;;;;;;5.43;4.90;;;26.20;65.90;;;;;;5074086;28;20461;-49
2021/06/25 11:56:46;;;;;;;7.23;4.83;;;26.30;64.90;;;;;;5056391;28;20548;-49
2021/06/25 11:59:14;;;;;;;6.00;4.60;;;26.30;64.20;;;;;;5073869;28;20426;-49
2021/06/25 12:01:56;;;;;;;4.90;4.10;;;26.30;63.30;;;;;;5074369;28;20890;-49
2021/06/25 12:04:38;;;;;;;5.07;4.57;;;26.40;62.20;;;;;;5074346;28;20438;-50
2021/06/25 12:07:06;;;;;;;5.03;4.00;;;26.40;61.20;;;;;;5074513;28;20436;-50
2021/06/25 12:09:48;;;;;;;4.83;4.43;;;26.40;62.00;;;;;;5074205;28;20466;-49
2021/06/25 12:12:24;;;;;;;3.93;3.40;;;26.50;61.20;;;;;;5074343;28;20477;-49
2021/06/25 12:14:53;;;;;;;4.37;3.97;;;26.50;60.50;;;;;;5074461;28;20445;-48
2021/06/25 12:17:22;;;;;;;6.27;4.53;;;26.50;60.50;;;;;;5074591;28;20448;-48
2021/06/25 12:20:08;;;;;;;5.00;4.50;;;26.60;60.50;;;;;;5074263;28;20467;-50
2021/06/25 12:22:47;;;;;;;5.90;4.60;;;26.60;59.70;;;;;;5074156;28;20890;-50
2021/06/25 12:25:14;;;;;;;5.20;4.03;;;26.70;60.10;;;;;;5074013;28;20537;-51
2021/06/25 12:27:42;;;;;;;6.93;4.70;;;26.60;60.20;;;;;;5074109;28;20514;-51
2021/06/25 12:30:13;;;;;;;6.83;4.70;;;26.70;60.60;;;;;;5073932;28;20440;-51
2021/06/25 12:32:41;;;;;;;6.90;4.23;;;26.70;60.40;;;;;;5073708;28;20454;-52
2021/06/25 12:35:10;;;;;;;6.67;5.03;;;26.70;60.20;;;;;;5074395;28;20467;-52
2021/06/25 12:37:52;;;;;;;6.10;4.80;;;26.80;59.90;;;;;;5074016;28;20462;-52
2021/06/25 12:40:39;;;;;;;4.80;4.30;;;26.80;59.50;;;;;;5073415;28;20467;-51
2021/06/25 12:43:06;;;;;;;4.23;3.83;;;26.90;58.90;;;;;;5073312;28;20476;-53
2021/06/25 12:45:45;;;;;;;7.20;4.60;;;26.90;59.20;;;;;;5073601;28;20906;-53
2021/06/25 12:48:18;;;;;;;5.77;3.80;;;27.00;58.80;;;;;;5073055;28;20874;-51
2021/06/25 12:50:46;;;;;;;4.90;4.30;;;26.90;59.10;;;;;;5055478;28;20485;-51
2021/06/25 12:53:15;;;;;;;8.60;4.80;;;26.90;59.30;;;;;;5073210;28;20930;-53
2021/06/25 12:55:44;;;;;;;4.70;3.87;;;26.80;59.10;;;;;;5073286;28;20529;-52
2021/06/25 12:58:12;;;;;;;5.27;4.63;;;26.90;59.10;;;;;;5073109;28;20529;-51
2021/06/25 13:00:39;;;;;;;5.27;4.20;;;26.90;59.00;;;;;;5088744;22;21116;31